sensor_id;sensor_type;location;lat;lon;timestamp;temperature;humidity
35920;DHT22;36160;53.370;-6.196;2022-12-20T00:01:15;8.30;94.20
35920;DHT22;36160;53.370;-6.196;2022-12-20T00:03:42;8.30;96.40
35920;DHT22;36160;53.370;-6.196;2022-12-20T00:06:09;8.30;94.50
35920;DHT22;36160;53.370;-6.196;2022-12-20T00:08:36;8.30;96.90
35920;DHT22;36160;53.370;-6.196;2022-12-20T00:11:03;8.30;95.40
35920;DHT22;36160;53.370;-6.196;2022-12-20T00:13:30;8.30;97.20
35920;DHT22;36160;53.370;-6.196;2022-12-20T00:16:23;8.40;97.00
35920;DHT22;36160;53.370;-6.196;2022-12-20T00:18:54;8.50;96.10
35920;DHT22;36160;53.370;-6.196;2022-12-20T00:21:20;8.50;96.00
35920;DHT22;36160;53.370;-6.196;2022-12-20T00:23:46;8.50;96.40
35920;DHT22;36160;53.370;-6.196;2022-12-20T00:26:17;8.50;95.70
35920;DHT22;36160;53.370;-6.196;2022-12-20T00:28:44;8.50;96.10
35920;DHT22;36160;53.370;-6.196;2022-12-20T00:31:12;8.50;95.00
35920;DHT22;36160;53.370;-6.196;2022-12-20T00:33:39;8.50;96.40
35920;DHT22;36160;53.370;-6.196;2022-12-20T00:36:06;8.50;95.30
35920;DHT22;36160;53.370;-6.196;2022-12-20T00:38:32;8.50;94.00
35920;DHT22;36160;53.370;-6.196;2022-12-20T00:41:10;8.50;92.60
35920;DHT22;36160;53.370;-6.196;2022-12-20T00:43:37;8.50;92.10
35920;DHT22;36160;53.370;-6.196;2022-12-20T00:46:03;8.50;94.00
35920;DHT22;36160;53.370;-6.196;2022-12-20T00:48:30;8.50;94.70
35920;DHT22;36160;53.370;-6.196;2022-12-20T00:51:16;8.50;95.20
35920;DHT22;36160;53.370;-6.196;2022-12-20T00:53:42;8.70;90.80
35920;DHT22;36160;53.370;-6.196;2022-12-20T00:56:08;8.70;87.70
35920;DHT22;36160;53.370;-6.196;2022-12-20T00:58:39;8.70;90.00
35920;DHT22;36160;53.370;-6.196;2022-12-20T01:01:13;8.80;92.30
35920;DHT22;36160;53.370;-6.196;2022-12-20T01:03:39;8.80;90.60
35920;DHT22;36160;53.370;-6.196;2022-12-20T01:06:05;8.80;83.50
35920;DHT22;36160;53.370;-6.196;2022-12-20T01:08:30;8.80;84.60
35920;DHT22;36160;53.370;-6.196;2022-12-20T01:11:15;8.80;85.80
35920;DHT22;36160;53.370;-6.196;2022-12-20T01:13:43;8.80;90.90
35920;DHT22;36160;53.370;-6.196;2022-12-20T01:16:22;8.90;82.80
35920;DHT22;36160;53.370;-6.196;2022-12-20T01:18:49;8.90;85.00
35920;DHT22;36160;53.370;-6.196;2022-12-20T01:21:17;8.90;82.60
35920;DHT22;36160;53.370;-6.196;2022-12-20T01:23:43;8.80;87.40
35920;DHT22;36160;53.370;-6.196;2022-12-20T01:26:12;8.80;91.60
35920;DHT22;36160;53.370;-6.196;2022-12-20T01:28:41;8.80;93.20
35920;DHT22;36160;53.370;-6.196;2022-12-20T01:31:09;8.80;92.00
35920;DHT22;36160;53.370;-6.196;2022-12-20T01:33:35;8.90;90.20
35920;DHT22;36160;53.370;-6.196;2022-12-20T01:36:05;8.90;90.50
35920;DHT22;36160;53.370;-6.196;2022-12-20T01:38:31;8.90;88.00
35920;DHT22;36160;53.370;-6.196;2022-12-20T01:40:57;8.90;87.70
35920;DHT22;36160;53.370;-6.196;2022-12-20T01:43:24;8.90;90.00
35920;DHT22;36160;53.370;-6.196;2022-12-20T01:45:50;8.80;91.10
35920;DHT22;36160;53.370;-6.196;2022-12-20T01:48:20;8.80;94.80
35920;DHT22;36160;53.370;-6.196;2022-12-20T01:50:47;8.80;95.50
35920;DHT22;36160;53.370;-6.196;2022-12-20T01:53:15;8.80;96.60
35920;DHT22;36160;53.370;-6.196;2022-12-20T01:55:42;8.80;97.80
35920;DHT22;36160;53.370;-6.196;2022-12-20T01:58:11;8.70;99.40
35920;DHT22;36160;53.370;-6.196;2022-12-20T02:00:37;8.70;99.00
35920;DHT22;36160;53.370;-6.196;2022-12-20T02:03:08;8.80;98.50
35920;DHT22;36160;53.370;-6.196;2022-12-20T02:05:40;8.80;99.60
35920;DHT22;36160;53.370;-6.196;2022-12-20T02:08:07;8.80;99.10
35920;DHT22;36160;53.370;-6.196;2022-12-20T02:13:47;8.70;99.90
35920;DHT22;36160;53.370;-6.196;2022-12-20T02:16:22;8.70;99.90
35920;DHT22;36160;53.370;-6.196;2022-12-20T02:18:59;8.70;99.90
35920;DHT22;36160;53.370;-6.196;2022-12-20T02:22:09;8.70;99.90
35920;DHT22;36160;53.370;-6.196;2022-12-20T02:24:53;8.70;99.90
35920;DHT22;36160;53.370;-6.196;2022-12-20T02:30:05;8.70;99.90
35920;DHT22;36160;53.370;-6.196;2022-12-20T02:33:01;8.70;99.30
35920;DHT22;36160;53.370;-6.196;2022-12-20T02:35:33;8.70;98.80
35920;DHT22;36160;53.370;-6.196;2022-12-20T02:38:02;8.70;99.60
35920;DHT22;36160;53.370;-6.196;2022-12-20T02:40:34;8.70;99.10
35920;DHT22;36160;53.370;-6.196;2022-12-20T02:43:03;8.70;96.60
35920;DHT22;36160;53.370;-6.196;2022-12-20T02:45:51;8.70;94.80
35920;DHT22;36160;53.370;-6.196;2022-12-20T02:48:17;8.60;96.10
35920;DHT22;36160;53.370;-6.196;2022-12-20T02:50:47;8.70;96.70
35920;DHT22;36160;53.370;-6.196;2022-12-20T02:53:15;8.70;95.50
35920;DHT22;36160;53.370;-6.196;2022-12-20T02:56:08;8.60;98.60
35920;DHT22;36160;53.370;-6.196;2022-12-20T02:58:57;8.60;99.90
35920;DHT22;36160;53.370;-6.196;2022-12-20T03:01:31;8.60;99.90
35920;DHT22;36160;53.370;-6.196;2022-12-20T03:03:58;8.60;99.90
35920;DHT22;36160;53.370;-6.196;2022-12-20T03:06:25;8.70;99.90
35920;DHT22;36160;53.370;-6.196;2022-12-20T03:08:50;8.70;99.90
35920;DHT22;36160;53.370;-6.196;2022-12-20T03:11:16;8.60;99.90
35920;DHT22;36160;53.370;-6.196;2022-12-20T03:13:41;8.60;99.90
35920;DHT22;36160;53.370;-6.196;2022-12-20T03:16:07;8.60;99.90
35920;DHT22;36160;53.370;-6.196;2022-12-20T03:18:35;8.60;99.90
35920;DHT22;36160;53.370;-6.196;2022-12-20T03:21:00;8.60;99.90
35920;DHT22;36160;53.370;-6.196;2022-12-20T03:23:26;8.50;99.90
35920;DHT22;36160;53.370;-6.196;2022-12-20T03:25:52;8.50;99.90
35920;DHT22;36160;53.370;-6.196;2022-12-20T03:28:17;8.50;99.90
35920;DHT22;36160;53.370;-6.196;2022-12-20T03:30:43;8.50;99.90
35920;DHT22;36160;53.370;-6.196;2022-12-20T03:33:10;8.40;99.90
35920;DHT22;36160;53.370;-6.196;2022-12-20T03:35:36;8.40;99.90
35920;DHT22;36160;53.370;-6.196;2022-12-20T03:38:01;8.40;99.90
35920;DHT22;36160;53.370;-6.196;2022-12-20T03:40:27;8.40;99.90
35920;DHT22;36160;53.370;-6.196;2022-12-20T03:42:52;8.30;99.90
35920;DHT22;36160;53.370;-6.196;2022-12-20T03:45:18;8.40;99.90
35920;DHT22;36160;53.370;-6.196;2022-12-20T03:47:44;8.50;99.90
35920;DHT22;36160;53.370;-6.196;2022-12-20T03:50:10;8.50;99.90
35920;DHT22;36160;53.370;-6.196;2022-12-20T03:52:36;8.40;99.90
35920;DHT22;36160;53.370;-6.196;2022-12-20T03:55:03;8.40;99.90
35920;DHT22;36160;53.370;-6.196;2022-12-20T03:57:28;8.40;99.90
35920;DHT22;36160;53.370;-6.196;2022-12-20T03:59:54;8.50;99.90
35920;DHT22;36160;53.370;-6.196;2022-12-20T04:02:21;8.50;99.90
35920;DHT22;36160;53.370;-6.196;2022-12-20T04:04:47;8.50;99.90
35920;DHT22;36160;53.370;-6.196;2022-12-20T04:07:13;8.50;99.90
35920;DHT22;36160;53.370;-6.196;2022-12-20T04:09:38;8.40;99.90
35920;DHT22;36160;53.370;-6.196;2022-12-20T04:12:05;8.40;99.90
35920;DHT22;36160;53.370;-6.196;2022-12-20T04:14:31;8.40;99.90
35920;DHT22;36160;53.370;-6.196;2022-12-20T04:16:57;8.40;99.90
35920;DHT22;36160;53.370;-6.196;2022-12-20T04:19:23;8.40;99.90
35920;DHT22;36160;53.370;-6.196;2022-12-20T04:21:49;8.40;99.90
35920;DHT22;36160;53.370;-6.196;2022-12-20T04:24:14;8.40;99.90
35920;DHT22;36160;53.370;-6.196;2022-12-20T04:26:40;8.40;99.90
35920;DHT22;36160;53.370;-6.196;2022-12-20T04:29:06;8.40;99.90
35920;DHT22;36160;53.370;-6.196;2022-12-20T04:31:32;8.30;99.90
35920;DHT22;36160;53.370;-6.196;2022-12-20T04:33:58;8.30;99.90
35920;DHT22;36160;53.370;-6.196;2022-12-20T04:36:23;8.30;99.90
35920;DHT22;36160;53.370;-6.196;2022-12-20T04:38:49;8.30;99.90
35920;DHT22;36160;53.370;-6.196;2022-12-20T04:41:15;8.40;99.90
35920;DHT22;36160;53.370;-6.196;2022-12-20T04:44:04;8.30;99.90
35920;DHT22;36160;53.370;-6.196;2022-12-20T04:46:30;8.40;99.90
35920;DHT22;36160;53.370;-6.196;2022-12-20T04:48:55;8.30;99.90
35920;DHT22;36160;53.370;-6.196;2022-12-20T04:51:21;8.30;99.90
35920;DHT22;36160;53.370;-6.196;2022-12-20T04:53:47;8.30;99.90
35920;DHT22;36160;53.370;-6.196;2022-12-20T04:56:19;8.20;99.90
35920;DHT22;36160;53.370;-6.196;2022-12-20T04:58:46;8.30;99.90
35920;DHT22;36160;53.370;-6.196;2022-12-20T05:01:13;8.20;99.90
35920;DHT22;36160;53.370;-6.196;2022-12-20T05:03:39;8.20;99.90
35920;DHT22;36160;53.370;-6.196;2022-12-20T05:06:05;8.20;99.90
35920;DHT22;36160;53.370;-6.196;2022-12-20T05:08:31;8.20;99.90
35920;DHT22;36160;53.370;-6.196;2022-12-20T05:10:57;8.30;99.90
35920;DHT22;36160;53.370;-6.196;2022-12-20T05:13:22;8.30;99.60
35920;DHT22;36160;53.370;-6.196;2022-12-20T05:15:53;8.30;99.10
35920;DHT22;36160;53.370;-6.196;2022-12-20T05:18:20;8.30;99.90
35920;DHT22;36160;53.370;-6.196;2022-12-20T05:20:46;8.30;98.40
35920;DHT22;36160;53.370;-6.196;2022-12-20T05:23:12;8.30;97.60
35920;DHT22;36160;53.370;-6.196;2022-12-20T05:25:56;8.40;98.60
35920;DHT22;36160;53.370;-6.196;2022-12-20T05:28:40;8.50;97.80
35920;DHT22;36160;53.370;-6.196;2022-12-20T05:31:06;8.40;99.00
35920;DHT22;36160;53.370;-6.196;2022-12-20T05:33:32;8.40;98.80
35920;DHT22;36160;53.370;-6.196;2022-12-20T05:35:57;8.40;99.50
35920;DHT22;36160;53.370;-6.196;2022-12-20T05:38:23;8.40;99.90
35920;DHT22;36160;53.370;-6.196;2022-12-20T05:40:50;8.30;99.90
35920;DHT22;36160;53.370;-6.196;2022-12-20T05:43:17;8.30;99.90
35920;DHT22;36160;53.370;-6.196;2022-12-20T05:45:47;8.30;99.90
35920;DHT22;36160;53.370;-6.196;2022-12-20T05:48:15;8.20;99.90
35920;DHT22;36160;53.370;-6.196;2022-12-20T05:50:42;8.30;99.90
35920;DHT22;36160;53.370;-6.196;2022-12-20T05:53:10;8.20;99.90
35920;DHT22;36160;53.370;-6.196;2022-12-20T05:55:36;8.20;99.90
35920;DHT22;36160;53.370;-6.196;2022-12-20T05:58:02;8.20;99.90
35920;DHT22;36160;53.370;-6.196;2022-12-20T06:00:27;8.20;99.90
35920;DHT22;36160;53.370;-6.196;2022-12-20T06:02:53;8.10;99.90
35920;DHT22;36160;53.370;-6.196;2022-12-20T06:05:19;8.10;99.90
35920;DHT22;36160;53.370;-6.196;2022-12-20T06:07:44;8.10;99.90
35920;DHT22;36160;53.370;-6.196;2022-12-20T06:10:10;8.10;99.90
35920;DHT22;36160;53.370;-6.196;2022-12-20T06:12:36;8.10;99.90
35920;DHT22;36160;53.370;-6.196;2022-12-20T06:15:02;8.10;99.90
35920;DHT22;36160;53.370;-6.196;2022-12-20T06:17:28;8.10;99.90
35920;DHT22;36160;53.370;-6.196;2022-12-20T06:19:53;8.10;99.90
35920;DHT22;36160;53.370;-6.196;2022-12-20T06:22:19;8.10;99.90
35920;DHT22;36160;53.370;-6.196;2022-12-20T06:24:45;8.00;99.90
35920;DHT22;36160;53.370;-6.196;2022-12-20T06:27:10;8.00;99.90
35920;DHT22;36160;53.370;-6.196;2022-12-20T06:29:36;8.00;99.90
35920;DHT22;36160;53.370;-6.196;2022-12-20T06:32:02;8.00;99.90
35920;DHT22;36160;53.370;-6.196;2022-12-20T06:34:30;8.00;99.90
35920;DHT22;36160;53.370;-6.196;2022-12-20T06:36:56;7.90;99.90
35920;DHT22;36160;53.370;-6.196;2022-12-20T06:39:21;7.90;99.90
35920;DHT22;36160;53.370;-6.196;2022-12-20T06:41:47;7.90;99.90
35920;DHT22;36160;53.370;-6.196;2022-12-20T06:44:13;8.00;99.90
35920;DHT22;36160;53.370;-6.196;2022-12-20T06:46:38;7.90;99.90
35920;DHT22;36160;53.370;-6.196;2022-12-20T06:49:04;7.90;99.90
35920;DHT22;36160;53.370;-6.196;2022-12-20T06:51:30;7.90;99.90
35920;DHT22;36160;53.370;-6.196;2022-12-20T06:53:55;7.90;99.90
35920;DHT22;36160;53.370;-6.196;2022-12-20T06:56:21;7.80;99.90
35920;DHT22;36160;53.370;-6.196;2022-12-20T06:58:46;7.80;99.90
35920;DHT22;36160;53.370;-6.196;2022-12-20T07:01:12;7.80;99.90
35920;DHT22;36160;53.370;-6.196;2022-12-20T07:03:38;7.80;99.90
35920;DHT22;36160;53.370;-6.196;2022-12-20T07:06:03;7.80;99.90
35920;DHT22;36160;53.370;-6.196;2022-12-20T07:08:30;7.70;99.90
35920;DHT22;36160;53.370;-6.196;2022-12-20T07:11:02;7.70;99.90
35920;DHT22;36160;53.370;-6.196;2022-12-20T07:13:28;7.60;99.90
35920;DHT22;36160;53.370;-6.196;2022-12-20T07:15:59;7.50;99.90
35920;DHT22;36160;53.370;-6.196;2022-12-20T07:18:25;7.60;99.90
35920;DHT22;36160;53.370;-6.196;2022-12-20T07:20:50;7.60;99.90
35920;DHT22;36160;53.370;-6.196;2022-12-20T07:23:16;7.60;99.90
35920;DHT22;36160;53.370;-6.196;2022-12-20T07:25:43;7.60;99.90
35920;DHT22;36160;53.370;-6.196;2022-12-20T07:28:16;7.60;99.90
35920;DHT22;36160;53.370;-6.196;2022-12-20T07:30:42;7.60;99.90
35920;DHT22;36160;53.370;-6.196;2022-12-20T07:33:08;7.70;99.90
35920;DHT22;36160;53.370;-6.196;2022-12-20T07:35:33;7.80;99.90
35920;DHT22;36160;53.370;-6.196;2022-12-20T07:37:59;7.80;99.90
35920;DHT22;36160;53.370;-6.196;2022-12-20T07:40:24;7.80;99.90
35920;DHT22;36160;53.370;-6.196;2022-12-20T07:42:50;7.70;99.90
35920;DHT22;36160;53.370;-6.196;2022-12-20T07:45:16;7.70;99.90
35920;DHT22;36160;53.370;-6.196;2022-12-20T07:47:41;7.70;99.90
35920;DHT22;36160;53.370;-6.196;2022-12-20T07:50:08;7.70;99.90
35920;DHT22;36160;53.370;-6.196;2022-12-20T07:52:34;7.60;98.80
35920;DHT22;36160;53.370;-6.196;2022-12-20T07:55:03;7.60;99.90
35920;DHT22;36160;53.370;-6.196;2022-12-20T07:57:41;7.60;99.90
35920;DHT22;36160;53.370;-6.196;2022-12-20T08:00:08;7.60;99.90
35920;DHT22;36160;53.370;-6.196;2022-12-20T08:02:38;7.60;99.20
35920;DHT22;36160;53.370;-6.196;2022-12-20T08:05:07;7.60;99.40
35920;DHT22;36160;53.370;-6.196;2022-12-20T08:07:35;7.60;97.20
35920;DHT22;36160;53.370;-6.196;2022-12-20T08:10:04;7.50;98.30
35920;DHT22;36160;53.370;-6.196;2022-12-20T08:12:30;7.50;99.90
35920;DHT22;36160;53.370;-6.196;2022-12-20T08:14:57;7.50;96.60
35920;DHT22;36160;53.370;-6.196;2022-12-20T08:17:23;7.50;96.70
35920;DHT22;36160;53.370;-6.196;2022-12-20T08:19:48;7.40;96.80
35920;DHT22;36160;53.370;-6.196;2022-12-20T08:22:17;7.40;97.60
35920;DHT22;36160;53.370;-6.196;2022-12-20T08:24:44;7.40;97.20
35920;DHT22;36160;53.370;-6.196;2022-12-20T08:27:09;7.40;95.30
35920;DHT22;36160;53.370;-6.196;2022-12-20T08:29:35;7.40;91.70
35920;DHT22;36160;53.370;-6.196;2022-12-20T08:32:01;7.40;93.10
35920;DHT22;36160;53.370;-6.196;2022-12-20T08:34:27;7.40;82.50
35920;DHT22;36160;53.370;-6.196;2022-12-20T08:36:52;7.40;78.70
35920;DHT22;36160;53.370;-6.196;2022-12-20T08:39:20;7.40;80.70
35920;DHT22;36160;53.370;-6.196;2022-12-20T08:41:45;7.40;71.80
35920;DHT22;36160;53.370;-6.196;2022-12-20T08:44:12;7.50;66.40
35920;DHT22;36160;53.370;-6.196;2022-12-20T08:46:37;7.50;62.70
35920;DHT22;36160;53.370;-6.196;2022-12-20T08:49:04;7.60;36.20
35920;DHT22;36160;53.370;-6.196;2022-12-20T08:51:30;7.50;40.70
35920;DHT22;36160;53.370;-6.196;2022-12-20T08:53:55;7.50;39.10
35920;DHT22;36160;53.370;-6.196;2022-12-20T08:56:21;7.50;29.60
35920;DHT22;36160;53.370;-6.196;2022-12-20T08:58:47;7.50;26.30
35920;DHT22;36160;53.370;-6.196;2022-12-20T09:01:18;7.50;11.80
35920;DHT22;36160;53.370;-6.196;2022-12-20T09:03:44;7.50;9.30
35920;DHT22;36160;53.370;-6.196;2022-12-20T09:06:17;7.50;15.00
35920;DHT22;36160;53.370;-6.196;2022-12-20T09:08:43;7.50;10.30
35920;DHT22;36160;53.370;-6.196;2022-12-20T09:11:16;7.60;4.90
35920;DHT22;36160;53.370;-6.196;2022-12-20T09:13:44;7.50;8.30
35920;DHT22;36160;53.370;-6.196;2022-12-20T09:16:13;7.50;1.10
35920;DHT22;36160;53.370;-6.196;2022-12-20T09:18:39;7.50;1.00
35920;DHT22;36160;53.370;-6.196;2022-12-20T09:21:06;7.50;1.00
35920;DHT22;36160;53.370;-6.196;2022-12-20T09:23:34;7.40;1.00
35920;DHT22;36160;53.370;-6.196;2022-12-20T09:26:02;7.40;1.00
35920;DHT22;36160;53.370;-6.196;2022-12-20T09:28:29;7.50;1.00
35920;DHT22;36160;53.370;-6.196;2022-12-20T09:31:02;7.50;1.00
35920;DHT22;36160;53.370;-6.196;2022-12-20T09:33:29;7.40;1.00
35920;DHT22;36160;53.370;-6.196;2022-12-20T09:35:55;7.50;1.00
35920;DHT22;36160;53.370;-6.196;2022-12-20T09:38:21;7.50;1.00
35920;DHT22;36160;53.370;-6.196;2022-12-20T09:40:49;7.40;1.00
35920;DHT22;36160;53.370;-6.196;2022-12-20T09:43:16;7.40;1.00
35920;DHT22;36160;53.370;-6.196;2022-12-20T09:45:43;7.40;1.00
35920;DHT22;36160;53.370;-6.196;2022-12-20T09:48:23;7.40;1.00
35920;DHT22;36160;53.370;-6.196;2022-12-20T09:56:12;7.40;1.00
35920;DHT22;36160;53.370;-6.196;2022-12-20T10:01:23;7.50;1.00
35920;DHT22;36160;53.370;-6.196;2022-12-20T10:03:49;7.60;1.00
35920;DHT22;36160;53.370;-6.196;2022-12-20T10:06:45;7.50;1.00
35920;DHT22;36160;53.370;-6.196;2022-12-20T10:20:12;7.70;99.90
35920;DHT22;36160;53.370;-6.196;2022-12-20T10:25:42;7.80;99.90
35920;DHT22;36160;53.370;-6.196;2022-12-20T10:28:16;7.80;99.90
35920;DHT22;36160;53.370;-6.196;2022-12-20T10:30:42;7.80;99.90
35920;DHT22;36160;53.370;-6.196;2022-12-20T10:33:25;7.90;99.90
35920;DHT22;36160;53.370;-6.196;2022-12-20T10:35:51;7.90;99.90
35920;DHT22;36160;53.370;-6.196;2022-12-20T10:38:18;7.90;99.90
35920;DHT22;36160;53.370;-6.196;2022-12-20T10:40:48;8.00;99.90
35920;DHT22;36160;53.370;-6.196;2022-12-20T10:43:23;8.00;76.00
35920;DHT22;36160;53.370;-6.196;2022-12-20T10:46:06;8.00;99.90
35920;DHT22;36160;53.370;-6.196;2022-12-20T10:48:40;8.00;20.00
35920;DHT22;36160;53.370;-6.196;2022-12-20T10:54:02;8.10;99.90
35920;DHT22;36160;53.370;-6.196;2022-12-20T10:56:34;8.10;99.90
35920;DHT22;36160;53.370;-6.196;2022-12-20T11:01:44;8.10;1.00
35920;DHT22;36160;53.370;-6.196;2022-12-20T11:04:32;8.20;4.90
35920;DHT22;36160;53.370;-6.196;2022-12-20T11:07:00;8.20;70.40
35920;DHT22;36160;53.370;-6.196;2022-12-20T11:09:32;8.20;23.80
35920;DHT22;36160;53.370;-6.196;2022-12-20T11:12:16;8.30;99.90
35920;DHT22;36160;53.370;-6.196;2022-12-20T11:14:44;8.30;51.80
35920;DHT22;36160;53.370;-6.196;2022-12-20T11:25:26;8.40;75.00
35920;DHT22;36160;53.370;-6.196;2022-12-20T11:36:23;8.50;99.90
35920;DHT22;36160;53.370;-6.196;2022-12-20T11:52:47;8.60;16.20
35920;DHT22;36160;53.370;-6.196;2022-12-20T11:55:19;8.60;42.30
35920;DHT22;36160;53.370;-6.196;2022-12-20T11:58:04;8.60;1.00
35920;DHT22;36160;53.370;-6.196;2022-12-20T12:00:35;8.60;99.90
35920;DHT22;36160;53.370;-6.196;2022-12-20T12:03:17;8.60;99.90
35920;DHT22;36160;53.370;-6.196;2022-12-20T12:05:46;8.60;99.90
35920;DHT22;36160;53.370;-6.196;2022-12-20T12:11:11;8.60;99.90
35920;DHT22;36160;53.370;-6.196;2022-12-20T12:13:41;8.60;99.90
35920;DHT22;36160;53.370;-6.196;2022-12-20T12:18:42;8.60;1.00
35920;DHT22;36160;53.370;-6.196;2022-12-20T12:26:37;8.60;99.90
35920;DHT22;36160;53.370;-6.196;2022-12-20T12:31:52;8.70;99.90
35920;DHT22;36160;53.370;-6.196;2022-12-20T12:42:30;8.60;99.90
35920;DHT22;36160;53.370;-6.196;2022-12-20T12:45:14;8.60;99.90
35920;DHT22;36160;53.370;-6.196;2022-12-20T12:47:48;8.60;99.90
35920;DHT22;36160;53.370;-6.196;2022-12-20T12:50:41;8.70;99.90
35920;DHT22;36160;53.370;-6.196;2022-12-20T12:53:23;8.70;99.90
35920;DHT22;36160;53.370;-6.196;2022-12-20T12:55:53;8.70;99.90
35920;DHT22;36160;53.370;-6.196;2022-12-20T13:01:01;8.80;99.90
35920;DHT22;36160;53.370;-6.196;2022-12-20T13:11:36;8.80;99.90
35920;DHT22;36160;53.370;-6.196;2022-12-20T13:24:58;9.00;99.90
35920;DHT22;36160;53.370;-6.196;2022-12-20T13:27:38;8.90;99.90
35920;DHT22;36160;53.370;-6.196;2022-12-20T13:33:16;9.00;99.90
35920;DHT22;36160;53.370;-6.196;2022-12-20T13:35:59;9.00;94.40
35920;DHT22;36160;53.370;-6.196;2022-12-20T13:41:46;9.00;20.70
35920;DHT22;36160;53.370;-6.196;2022-12-20T13:47:30;9.00;99.90
35920;DHT22;36160;53.370;-6.196;2022-12-20T13:50:48;9.00;99.90
35920;DHT22;36160;53.370;-6.196;2022-12-20T13:53:22;9.00;99.90
35920;DHT22;36160;53.370;-6.196;2022-12-20T13:55:52;9.00;1.00
35920;DHT22;36160;53.370;-6.196;2022-12-20T13:58:30;9.00;99.90
35920;DHT22;36160;53.370;-6.196;2022-12-20T14:01:21;9.00;99.90
35920;DHT22;36160;53.370;-6.196;2022-12-20T14:03:55;9.00;12.90
35920;DHT22;36160;53.370;-6.196;2022-12-20T14:06:24;8.90;99.90
35920;DHT22;36160;53.370;-6.196;2022-12-20T14:09:30;8.90;99.90
35920;DHT22;36160;53.370;-6.196;2022-12-20T14:12:02;8.90;99.90
35920;DHT22;36160;53.370;-6.196;2022-12-20T14:14:28;8.90;99.90
35920;DHT22;36160;53.370;-6.196;2022-12-20T14:16:54;8.90;99.90
35920;DHT22;36160;53.370;-6.196;2022-12-20T14:19:19;8.90;99.90
35920;DHT22;36160;53.370;-6.196;2022-12-20T14:21:47;8.80;99.90
35920;DHT22;36160;53.370;-6.196;2022-12-20T14:24:19;8.80;37.10
35920;DHT22;36160;53.370;-6.196;2022-12-20T14:26:52;8.80;99.90
35920;DHT22;36160;53.370;-6.196;2022-12-20T14:29:27;8.80;1.00
35920;DHT22;36160;53.370;-6.196;2022-12-20T14:31:53;8.80;99.90
35920;DHT22;36160;53.370;-6.196;2022-12-20T14:34:25;8.80;99.90
35920;DHT22;36160;53.370;-6.196;2022-12-20T14:37:16;8.70;99.90
35920;DHT22;36160;53.370;-6.196;2022-12-20T14:40:24;8.70;99.90
35920;DHT22;36160;53.370;-6.196;2022-12-20T14:42:50;8.60;99.90
35920;DHT22;36160;53.370;-6.196;2022-12-20T14:45:19;8.60;99.90
35920;DHT22;36160;53.370;-6.196;2022-12-20T14:48:00;8.50;99.90
35920;DHT22;36160;53.370;-6.196;2022-12-20T14:50:30;8.50;99.90
35920;DHT22;36160;53.370;-6.196;2022-12-20T14:52:57;8.50;99.90
35920;DHT22;36160;53.370;-6.196;2022-12-20T14:55:30;8.50;1.00
35920;DHT22;36160;53.370;-6.196;2022-12-20T14:57:57;8.50;1.00
35920;DHT22;36160;53.370;-6.196;2022-12-20T15:00:31;8.50;99.90
35920;DHT22;36160;53.370;-6.196;2022-12-20T15:10:46;8.40;92.00
35920;DHT22;36160;53.370;-6.196;2022-12-20T15:13:17;8.40;99.90
35920;DHT22;36160;53.370;-6.196;2022-12-20T15:15:43;8.40;99.90
35920;DHT22;36160;53.370;-6.196;2022-12-20T15:18:14;8.40;99.90
35920;DHT22;36160;53.370;-6.196;2022-12-20T15:20:41;8.40;1.00
35920;DHT22;36160;53.370;-6.196;2022-12-20T15:23:15;8.30;99.90
35920;DHT22;36160;53.370;-6.196;2022-12-20T15:25:42;8.30;5.20
35920;DHT22;36160;53.370;-6.196;2022-12-20T15:28:23;8.30;90.00
35920;DHT22;36160;53.370;-6.196;2022-12-20T15:30:50;8.30;99.90
35920;DHT22;36160;53.370;-6.196;2022-12-20T15:33:27;8.30;99.90
35920;DHT22;36160;53.370;-6.196;2022-12-20T15:35:55;8.30;1.00
35920;DHT22;36160;53.370;-6.196;2022-12-20T15:38:23;8.20;71.40
35920;DHT22;36160;53.370;-6.196;2022-12-20T15:40:52;8.20;1.00
35920;DHT22;36160;53.370;-6.196;2022-12-20T15:43:22;8.20;1.00
35920;DHT22;36160;53.370;-6.196;2022-12-20T15:45:52;8.20;99.90
35920;DHT22;36160;53.370;-6.196;2022-12-20T15:48:22;8.10;8.90
35920;DHT22;36160;53.370;-6.196;2022-12-20T15:50:58;8.10;99.90
35920;DHT22;36160;53.370;-6.196;2022-12-20T15:53:31;8.10;99.90
35920;DHT22;36160;53.370;-6.196;2022-12-20T15:55:58;8.10;15.20
35920;DHT22;36160;53.370;-6.196;2022-12-20T15:58:24;8.10;99.90
35920;DHT22;36160;53.370;-6.196;2022-12-20T16:01:00;8.10;11.30
35920;DHT22;36160;53.370;-6.196;2022-12-20T16:03:30;8.00;99.90
35920;DHT22;36160;53.370;-6.196;2022-12-20T16:05:58;8.00;99.90
35920;DHT22;36160;53.370;-6.196;2022-12-20T16:08:25;8.00;99.90
35920;DHT22;36160;53.370;-6.196;2022-12-20T16:10:51;7.90;99.90
35920;DHT22;36160;53.370;-6.196;2022-12-20T16:13:22;7.90;99.90
35920;DHT22;36160;53.370;-6.196;2022-12-20T16:15:48;7.80;99.90
35920;DHT22;36160;53.370;-6.196;2022-12-20T16:18:14;7.80;99.90
35920;DHT22;36160;53.370;-6.196;2022-12-20T16:20:41;7.70;98.10
35920;DHT22;36160;53.370;-6.196;2022-12-20T16:23:18;7.70;74.20
35920;DHT22;36160;53.370;-6.196;2022-12-20T16:25:45;7.70;99.90
35920;DHT22;36160;53.370;-6.196;2022-12-20T16:28:10;7.70;1.00
35920;DHT22;36160;53.370;-6.196;2022-12-20T16:30:36;7.60;48.30
35920;DHT22;36160;53.370;-6.196;2022-12-20T16:33:02;7.60;99.90
35920;DHT22;36160;53.370;-6.196;2022-12-20T16:35:33;7.60;34.40
35920;DHT22;36160;53.370;-6.196;2022-12-20T16:38:02;7.60;1.00
35920;DHT22;36160;53.370;-6.196;2022-12-20T16:40:30;7.60;1.00
35920;DHT22;36160;53.370;-6.196;2022-12-20T16:42:57;7.60;99.90
35920;DHT22;36160;53.370;-6.196;2022-12-20T16:45:26;7.60;99.90
35920;DHT22;36160;53.370;-6.196;2022-12-20T16:47:52;7.60;99.90
35920;DHT22;36160;53.370;-6.196;2022-12-20T16:50:19;7.60;99.90
35920;DHT22;36160;53.370;-6.196;2022-12-20T16:52:46;7.50;99.90
35920;DHT22;36160;53.370;-6.196;2022-12-20T16:55:30;7.50;24.70
35920;DHT22;36160;53.370;-6.196;2022-12-20T16:57:56;7.50;99.90
35920;DHT22;36160;53.370;-6.196;2022-12-20T17:00:24;7.50;99.90
35920;DHT22;36160;53.370;-6.196;2022-12-20T17:02:50;7.50;99.90
35920;DHT22;36160;53.370;-6.196;2022-12-20T17:07:47;7.40;99.90
35920;DHT22;36160;53.370;-6.196;2022-12-20T17:10:12;7.50;99.90
35920;DHT22;36160;53.370;-6.196;2022-12-20T17:12:38;7.50;99.90
35920;DHT22;36160;53.370;-6.196;2022-12-20T17:15:04;7.40;99.90
35920;DHT22;36160;53.370;-6.196;2022-12-20T17:17:30;7.40;99.90
35920;DHT22;36160;53.370;-6.196;2022-12-20T17:19:56;7.30;99.90
35920;DHT22;36160;53.370;-6.196;2022-12-20T17:22:21;7.30;99.90
35920;DHT22;36160;53.370;-6.196;2022-12-20T17:24:47;7.30;99.90
35920;DHT22;36160;53.370;-6.196;2022-12-20T17:27:13;7.30;81.80
35920;DHT22;36160;53.370;-6.196;2022-12-20T17:29:38;7.30;1.00
35920;DHT22;36160;53.370;-6.196;2022-12-20T17:32:20;7.30;99.90
35920;DHT22;36160;53.370;-6.196;2022-12-20T17:34:46;7.30;99.90
35920;DHT22;36160;53.370;-6.196;2022-12-20T17:37:12;7.30;99.90
35920;DHT22;36160;53.370;-6.196;2022-12-20T17:39:37;7.30;99.90
35920;DHT22;36160;53.370;-6.196;2022-12-20T17:42:03;7.30;1.00
35920;DHT22;36160;53.370;-6.196;2022-12-20T17:44:29;7.30;1.00
35920;DHT22;36160;53.370;-6.196;2022-12-20T17:46:56;7.30;99.90
35920;DHT22;36160;53.370;-6.196;2022-12-20T17:49:22;7.30;99.90
35920;DHT22;36160;53.370;-6.196;2022-12-20T17:51:49;7.30;99.90
35920;DHT22;36160;53.370;-6.196;2022-12-20T17:54:22;7.30;99.90